createdAt,value
2018-07-15T00:02:07.379Z,20.00
2018-07-15T00:04:35.734Z,20.10
2018-07-15T00:07:04.146Z,19.90
2018-07-15T00:09:32.517Z,19.90
2018-07-15T00:12:00.903Z,19.80
2018-07-15T00:14:29.482Z,19.90
2018-07-15T00:16:57.833Z,20.00
2018-07-15T00:19:26.234Z,19.90
2018-07-15T00:21:54.579Z,19.90
2018-07-15T00:24:23.033Z,19.90
2018-07-15T00:26:51.626Z,19.90
2018-07-15T00:29:20.005Z,19.80
2018-07-15T00:31:48.380Z,19.70
2018-07-15T00:34:16.796Z,19.70
2018-07-15T00:39:13.258Z,19.70
2018-07-15T00:41:41.677Z,19.70
2018-07-15T00:44:10.031Z,19.70
2018-07-15T00:46:38.404Z,19.70
2018-07-15T00:49:07.327Z,19.60
2018-07-15T00:51:35.732Z,19.60
2018-07-15T00:54:04.130Z,19.40
2018-07-15T00:56:32.538Z,19.40
2018-07-15T00:59:01.001Z,19.60
2018-07-15T01:01:29.398Z,19.50
2018-07-15T01:03:57.802Z,19.50
2018-07-15T01:06:26.209Z,19.40
2018-07-15T01:08:54.616Z,19.30
2018-07-15T01:11:22.997Z,19.20
2018-07-15T01:13:51.354Z,19.20
2018-07-15T01:16:19.758Z,19.20
2018-07-15T01:18:48.216Z,19.10
2018-07-15T01:21:16.567Z,18.90
2018-07-15T01:23:44.915Z,19.10
2018-07-15T01:26:14.274Z,19.10
2018-07-15T01:28:42.630Z,19.00
2018-07-15T01:31:11.010Z,19.00
2018-07-15T01:33:40.378Z,19.00
2018-07-15T01:36:08.795Z,19.00
2018-07-15T01:38:37.150Z,19.00
2018-07-15T01:41:05.493Z,19.00
2018-07-15T01:46:01.999Z,18.80
2018-07-15T01:48:30.364Z,18.80
2018-07-15T01:50:58.965Z,18.80
2018-07-15T01:53:27.314Z,18.80
2018-07-15T01:55:55.665Z,18.70
2018-07-15T01:58:24.038Z,18.70
2018-07-15T02:00:52.569Z,18.80
2018-07-15T02:03:20.909Z,18.90
2018-07-15T02:05:49.290Z,18.90
2018-07-15T02:08:17.707Z,18.80
2018-07-15T02:10:46.051Z,18.70
2018-07-15T02:13:14.423Z,18.50
2018-07-15T02:15:42.954Z,18.40
2018-07-15T02:18:11.528Z,18.40
2018-07-15T02:20:40.154Z,18.40
2018-07-15T02:23:08.535Z,18.40
2018-07-15T02:25:36.914Z,18.40
2018-07-15T02:28:05.342Z,18.40
2018-07-15T02:30:33.801Z,18.50
2018-07-15T02:33:02.215Z,18.70
2018-07-15T02:35:30.584Z,18.60
2018-07-15T02:37:58.938Z,18.50
2018-07-15T02:40:27.346Z,18.50
2018-07-15T02:42:55.742Z,18.50
2018-07-15T02:45:24.092Z,18.40
2018-07-15T02:47:52.497Z,18.30
2018-07-15T02:50:20.853Z,18.20
2018-07-15T02:52:49.222Z,18.20
2018-07-15T02:55:17.629Z,18.20
2018-07-15T02:57:46.008Z,18.30
2018-07-15T03:00:14.394Z,18.30
2018-07-15T03:02:42.817Z,18.20
2018-07-15T03:05:11.462Z,18.20
2018-07-15T03:07:39.839Z,18.20
2018-07-15T03:10:08.202Z,18.20
2018-07-15T03:12:38.334Z,18.20
2018-07-15T03:15:06.740Z,18.10
2018-07-15T03:17:35.106Z,18.10
2018-07-15T03:20:03.612Z,18.00
2018-07-15T03:22:31.955Z,18.10
2018-07-15T03:25:00.335Z,18.10
2018-07-15T03:27:28.733Z,18.00
2018-07-15T03:29:57.910Z,18.00
2018-07-15T03:32:26.262Z,18.10
2018-07-15T03:34:54.687Z,18.10
2018-07-15T03:37:23.075Z,18.10
2018-07-15T03:39:51.475Z,18.20
2018-07-15T03:42:19.910Z,18.30
2018-07-15T03:44:48.266Z,18.20
2018-07-15T03:47:16.662Z,18.20
2018-07-15T03:49:45.087Z,18.10
2018-07-15T03:52:13.440Z,18.10
2018-07-15T03:54:41.826Z,18.10
2018-07-15T03:57:10.207Z,18.00
2018-07-15T03:59:38.582Z,17.90
2018-07-15T04:02:06.951Z,17.90
2018-07-15T04:04:35.317Z,17.90
2018-07-15T04:07:03.685Z,17.50
2018-07-15T04:09:32.074Z,17.30
2018-07-15T04:12:00.439Z,17.40
2018-07-15T04:14:28.786Z,17.70
2018-07-15T04:16:57.144Z,17.80
2018-07-15T04:19:25.625Z,17.90
2018-07-15T04:21:53.978Z,17.70
2018-07-15T04:24:22.321Z,17.80
2018-07-15T04:26:50.706Z,17.80
2018-07-15T04:29:19.065Z,17.80
2018-07-15T04:31:47.465Z,17.80
2018-07-15T04:34:15.870Z,17.80
2018-07-15T04:36:44.356Z,17.80
2018-07-15T04:39:12.834Z,17.90
2018-07-15T04:41:41.290Z,18.20
2018-07-15T04:44:09.686Z,18.40
2018-07-15T04:46:38.107Z,18.40
2018-07-15T04:49:06.550Z,18.70
2018-07-15T04:51:35.086Z,18.80
2018-07-15T04:54:03.486Z,19.00
2018-07-15T04:56:31.845Z,19.10
2018-07-15T04:59:00.304Z,19.10
2018-07-15T05:01:28.678Z,19.20
2018-07-15T05:03:57.073Z,19.30
2018-07-15T05:06:25.414Z,19.40
2018-07-15T05:08:53.761Z,19.50
2018-07-15T05:11:22.285Z,19.50
2018-07-15T05:13:50.685Z,19.60
2018-07-15T05:16:19.052Z,19.60
2018-07-15T05:18:47.519Z,19.70
2018-07-15T05:21:15.863Z,19.80
2018-07-15T05:23:44.262Z,19.70
2018-07-15T05:26:12.654Z,19.70
2018-07-15T05:28:41.014Z,19.70
2018-07-15T05:31:09.443Z,19.70
2018-07-15T05:33:37.848Z,19.90
2018-07-15T05:36:06.502Z,19.90
2018-07-15T05:38:34.976Z,20.20
2018-07-15T05:41:03.394Z,20.30
2018-07-15T05:43:31.746Z,20.20
2018-07-15T05:46:00.162Z,20.30
2018-07-15T05:48:28.503Z,20.40
2018-07-15T05:50:56.853Z,20.60
2018-07-15T05:53:25.237Z,20.70
2018-07-15T05:55:53.590Z,20.80
2018-07-15T05:58:21.940Z,20.80
2018-07-15T06:00:50.368Z,21.00
2018-07-15T06:03:18.807Z,20.90
2018-07-15T06:05:47.125Z,20.80
2018-07-15T06:08:16.183Z,20.70
2018-07-15T06:10:44.612Z,20.90
2018-07-15T06:13:12.922Z,21.20
2018-07-15T06:15:41.293Z,21.10
2018-07-15T06:18:09.678Z,21.10
2018-07-15T06:20:38.032Z,21.30
2018-07-15T06:23:06.455Z,20.80
2018-07-15T06:25:34.914Z,20.90
2018-07-15T06:28:03.266Z,21.10
2018-07-15T06:30:31.734Z,20.90
2018-07-15T06:33:00.099Z,21.20
2018-07-15T06:35:28.486Z,21.00
2018-07-15T06:37:56.935Z,21.40
2018-07-15T06:40:25.369Z,21.60
2018-07-15T06:42:53.722Z,21.00
2018-07-15T06:45:22.074Z,20.90
2018-07-15T06:50:18.867Z,21.00
2018-07-15T06:52:48.076Z,21.30
2018-07-15T06:55:16.494Z,21.50
2018-07-15T06:57:44.938Z,21.50
2018-07-15T07:00:13.286Z,21.90
2018-07-15T07:02:41.695Z,22.20
2018-07-15T07:05:10.093Z,22.30
2018-07-15T07:07:38.586Z,22.20
2018-07-15T07:10:06.895Z,22.10
2018-07-15T07:12:35.285Z,22.10
2018-07-15T07:15:03.798Z,22.10
2018-07-15T07:17:32.148Z,22.20
2018-07-15T07:20:00.521Z,22.30
2018-07-15T07:22:29.035Z,22.40
2018-07-15T07:24:57.385Z,22.30
2018-07-15T07:27:25.762Z,22.40
2018-07-15T07:29:54.112Z,22.50
2018-07-15T07:32:22.474Z,22.50
2018-07-15T07:34:50.926Z,22.70
2018-07-15T07:37:19.276Z,22.60
2018-07-15T07:39:47.625Z,23.00
2018-07-15T07:44:44.075Z,23.40
2018-07-15T07:47:12.456Z,23.20
2018-07-15T07:49:40.812Z,23.00
2018-07-15T07:52:09.571Z,23.10
2018-07-15T07:54:38.078Z,22.60
2018-07-15T07:57:06.830Z,22.90
2018-07-15T07:59:35.345Z,23.00
2018-07-15T08:02:03.833Z,23.10
2018-07-15T08:04:32.165Z,23.20
2018-07-15T08:07:00.556Z,23.30
2018-07-15T08:09:29.037Z,23.30
2018-07-15T08:11:57.558Z,23.20
2018-07-15T08:14:26.102Z,23.40
2018-07-15T08:16:54.450Z,23.30
2018-07-15T08:19:22.829Z,23.10
2018-07-15T08:21:51.568Z,23.20
2018-07-15T08:24:19.988Z,23.40
2018-07-15T08:26:48.400Z,23.50
2018-07-15T08:29:16.818Z,23.60
2018-07-15T08:31:45.162Z,23.70
2018-07-15T08:34:13.608Z,23.30
2018-07-15T08:36:41.974Z,23.30
2018-07-15T08:39:10.321Z,23.60
2018-07-15T08:41:38.798Z,23.60
2018-07-15T08:44:07.161Z,23.50
2018-07-15T08:46:35.513Z,23.40
2018-07-15T08:51:32.067Z,23.20
2018-07-15T08:54:00.453Z,23.20
2018-07-15T08:56:28.853Z,23.00
2018-07-15T08:58:57.247Z,23.20
2018-07-15T09:01:25.656Z,23.40
2018-07-15T09:03:54.037Z,23.30
2018-07-15T09:06:22.602Z,23.50
2018-07-15T09:08:50.941Z,23.40
2018-07-15T09:11:19.318Z,23.40
2018-07-15T09:13:47.730Z,23.40
2018-07-15T09:16:16.223Z,23.40
2018-07-15T09:18:44.581Z,23.40
2018-07-15T09:21:12.959Z,23.40
2018-07-15T09:23:41.314Z,23.60
2018-07-15T09:26:09.687Z,23.70
2018-07-15T09:31:06.630Z,23.80
2018-07-15T09:33:35.074Z,24.00
2018-07-15T09:36:03.430Z,23.90
2018-07-15T09:38:31.811Z,23.80
2018-07-15T09:41:00.154Z,24.00
2018-07-15T09:43:28.522Z,24.00
2018-07-15T09:45:56.952Z,23.70
2018-07-15T09:48:25.294Z,23.70
2018-07-15T09:50:53.694Z,23.60
2018-07-15T09:53:22.214Z,23.60
2018-07-15T09:55:50.560Z,23.70
2018-07-15T09:58:19.021Z,23.70
2018-07-15T10:00:52.759Z,23.50
2018-07-15T10:03:21.170Z,23.60
2018-07-15T10:05:49.534Z,23.70
2018-07-15T10:08:18.678Z,23.70
2018-07-15T10:10:47.054Z,23.80
2018-07-15T10:13:15.528Z,24.00
2018-07-15T10:15:43.867Z,23.90
2018-07-15T10:18:12.286Z,23.80
2018-07-15T10:20:40.690Z,23.80
2018-07-15T10:23:09.067Z,23.90
2018-07-15T10:25:37.462Z,23.80
2018-07-15T10:28:06.046Z,23.80
2018-07-15T10:30:34.426Z,23.80
2018-07-15T10:33:02.921Z,23.80
2018-07-15T10:35:31.239Z,23.80
2018-07-15T10:37:59.587Z,23.90
2018-07-15T10:40:27.955Z,23.90
2018-07-15T10:42:56.322Z,23.90
2018-07-15T10:45:24.757Z,23.90
2018-07-15T10:47:53.255Z,24.00
2018-07-15T10:50:21.625Z,24.00
2018-07-15T10:52:50.068Z,24.00
2018-07-15T10:55:18.537Z,24.00
2018-07-15T10:57:48.346Z,24.00
2018-07-15T11:00:16.766Z,24.10
2018-07-15T11:02:45.310Z,24.20
2018-07-15T11:05:13.665Z,24.20
2018-07-15T11:07:42.089Z,24.10
2018-07-15T11:10:10.467Z,24.10
2018-07-15T11:12:38.831Z,24.20
2018-07-15T11:15:07.219Z,24.10
2018-07-15T11:17:35.603Z,24.30
2018-07-15T11:20:03.993Z,24.20
2018-07-15T11:22:32.603Z,24.30
2018-07-15T11:25:00.940Z,24.40
2018-07-15T11:27:29.359Z,24.10
2018-07-15T11:29:57.762Z,24.10
2018-07-15T11:32:26.101Z,24.30
2018-07-15T11:34:54.478Z,24.40
2018-07-15T11:37:22.849Z,24.30
2018-07-15T11:39:51.222Z,24.10
2018-07-15T11:42:19.589Z,24.10
2018-07-15T11:44:48.002Z,24.20
2018-07-15T11:47:16.350Z,24.30
2018-07-15T11:49:44.690Z,24.30
2018-07-15T11:52:13.242Z,24.20
2018-07-15T11:54:41.630Z,24.30
2018-07-15T11:57:09.989Z,24.20
2018-07-15T11:59:38.408Z,24.40
2018-07-15T12:04:35.116Z,24.40
2018-07-15T12:07:03.553Z,24.40
2018-07-15T12:09:33.218Z,24.50
2018-07-15T12:12:02.087Z,24.50
2018-07-15T12:14:30.617Z,24.50
2018-07-15T12:16:58.989Z,24.50
2018-07-15T12:19:27.489Z,24.40
2018-07-15T12:21:55.914Z,24.60
2018-07-15T12:24:24.346Z,24.60
2018-07-15T12:26:52.686Z,24.60
2018-07-15T12:29:21.175Z,24.40
2018-07-15T12:31:49.553Z,24.50
2018-07-15T12:34:17.970Z,24.60
2018-07-15T12:36:46.382Z,24.60
2018-07-15T12:39:14.894Z,24.60
2018-07-15T12:41:43.265Z,24.50
2018-07-15T12:44:12.800Z,24.40
2018-07-15T12:46:42.033Z,24.60
2018-07-15T12:49:11.314Z,24.60
2018-07-15T12:51:40.707Z,24.50
2018-07-15T12:54:09.998Z,24.50
2018-07-15T12:56:39.121Z,24.60
2018-07-15T12:59:08.771Z,24.70
2018-07-15T13:01:39.115Z,24.70
2018-07-15T13:04:08.500Z,24.70
2018-07-15T13:06:38.012Z,24.90
2018-07-15T13:09:07.496Z,24.90
2018-07-15T13:11:36.949Z,25.00
2018-07-15T13:14:06.387Z,25.10
2018-07-15T13:16:35.796Z,25.00
2018-07-15T13:19:05.195Z,25.00
2018-07-15T13:21:35.475Z,24.90
2018-07-15T13:24:04.706Z,24.90
2018-07-15T13:26:33.859Z,24.90
2018-07-15T13:29:03.188Z,24.90
2018-07-15T13:31:32.348Z,24.90
2018-07-15T13:34:01.730Z,24.90
2018-07-15T13:36:31.064Z,25.00
2018-07-15T13:38:59.447Z,25.20
2018-07-15T13:41:27.803Z,25.20
2018-07-15T13:43:56.235Z,25.10
2018-07-15T13:46:24.574Z,25.10
2018-07-15T13:48:53.070Z,25.10
2018-07-15T13:51:21.488Z,25.20
2018-07-15T13:53:49.882Z,25.00
2018-07-15T13:56:18.318Z,24.90
2018-07-15T13:58:46.809Z,24.90
2018-07-15T14:01:15.889Z,25.20
2018-07-15T14:03:44.334Z,25.10
2018-07-15T14:06:12.721Z,25.00
2018-07-15T14:08:41.161Z,24.90
2018-07-15T14:11:09.559Z,24.80
2018-07-15T14:13:37.950Z,24.80
2018-07-15T14:16:06.311Z,24.90
2018-07-15T14:18:34.650Z,25.10
2018-07-15T14:21:03.449Z,25.30
2018-07-15T14:23:31.837Z,25.30
2018-07-15T14:26:00.281Z,25.50
2018-07-15T14:28:28.646Z,25.40
2018-07-15T14:30:56.997Z,25.40
2018-07-15T14:33:25.391Z,25.60
2018-07-15T14:35:53.779Z,25.40
2018-07-15T14:38:22.142Z,25.30
2018-07-15T14:40:50.565Z,25.30
2018-07-15T14:43:18.978Z,25.20
2018-07-15T14:45:47.445Z,25.30
2018-07-15T14:48:15.809Z,25.30
2018-07-15T14:50:44.483Z,25.30
2018-07-15T14:53:12.873Z,25.50
2018-07-15T14:55:41.317Z,25.60
2018-07-15T14:58:11.042Z,25.50
2018-07-15T15:00:39.422Z,25.40
2018-07-15T15:03:15.181Z,25.50
2018-07-15T15:05:43.730Z,25.30
2018-07-15T15:08:12.122Z,25.30
2018-07-15T15:10:40.549Z,25.30
2018-07-15T15:13:09.024Z,25.30
2018-07-15T15:15:37.400Z,25.30
2018-07-15T15:18:05.814Z,25.30
2018-07-15T15:20:34.280Z,25.40
2018-07-15T15:23:02.673Z,25.40
2018-07-15T15:25:31.084Z,25.40
2018-07-15T15:27:59.459Z,25.30
2018-07-15T15:30:27.835Z,25.30
2018-07-15T15:32:56.215Z,25.20
2018-07-15T15:35:24.578Z,25.10
2018-07-15T15:37:53.090Z,25.10
2018-07-15T15:40:21.521Z,25.10
2018-07-15T15:42:49.899Z,25.20
2018-07-15T15:45:18.266Z,25.20
2018-07-15T15:47:46.656Z,25.30
2018-07-15T15:50:15.026Z,25.30
2018-07-15T15:52:43.379Z,25.20
2018-07-15T15:55:11.821Z,25.20
2018-07-15T15:57:40.212Z,25.20
2018-07-15T16:00:09.816Z,25.20
2018-07-15T16:02:38.333Z,25.20
2018-07-15T16:05:07.132Z,25.20
2018-07-15T16:07:35.559Z,25.10
2018-07-15T16:10:03.987Z,25.10
2018-07-15T16:12:32.369Z,25.00
2018-07-15T16:15:00.785Z,24.90
2018-07-15T16:17:29.152Z,25.00
2018-07-15T16:19:57.680Z,25.10
2018-07-15T16:22:26.890Z,25.10
2018-07-15T16:24:55.252Z,25.10
2018-07-15T16:27:23.605Z,25.00
2018-07-15T16:29:52.025Z,25.00
2018-07-15T16:32:20.377Z,25.00
2018-07-15T16:34:49.123Z,24.90
2018-07-15T16:37:17.539Z,25.00
2018-07-15T16:39:45.935Z,24.90
2018-07-15T16:42:14.314Z,24.90
2018-07-15T16:44:43.562Z,24.90
2018-07-15T16:47:11.905Z,24.90
2018-07-15T16:49:40.308Z,24.90
2018-07-15T16:52:08.716Z,24.90
2018-07-15T16:54:37.110Z,24.90
2018-07-15T16:57:05.673Z,24.90
2018-07-15T16:59:34.326Z,24.90
2018-07-15T17:02:02.693Z,24.90
2018-07-15T17:04:31.213Z,24.80
2018-07-15T17:06:59.650Z,24.90
2018-07-15T17:09:27.982Z,24.80
2018-07-15T17:11:56.402Z,24.80
2018-07-15T17:14:25.778Z,24.70
2018-07-15T17:16:54.140Z,24.70
2018-07-15T17:19:22.566Z,24.70
2018-07-15T17:21:51.093Z,24.80
2018-07-15T17:24:19.514Z,24.70
2018-07-15T17:26:47.899Z,24.80
2018-07-15T17:29:16.277Z,24.70
2018-07-15T17:31:44.866Z,24.70
2018-07-15T17:34:13.226Z,24.70
2018-07-15T17:36:41.608Z,24.70
2018-07-15T17:39:10.049Z,24.70
2018-07-15T17:41:38.423Z,24.70
2018-07-15T17:44:06.879Z,24.70
2018-07-15T17:46:35.282Z,24.70
2018-07-15T17:49:03.764Z,24.60
2018-07-15T17:51:32.146Z,24.60
2018-07-15T17:54:00.542Z,24.60
2018-07-15T17:56:28.934Z,24.60
2018-07-15T17:58:57.314Z,24.60
2018-07-15T18:01:25.711Z,24.60
2018-07-15T18:03:54.126Z,24.60
2018-07-15T18:06:22.546Z,24.60
2018-07-15T18:08:50.963Z,24.50
2018-07-15T18:11:19.328Z,24.50
2018-07-15T18:13:47.745Z,24.50
2018-07-15T18:16:16.253Z,24.50
2018-07-15T18:18:44.546Z,24.50
2018-07-15T18:21:12.918Z,24.50
2018-07-15T18:23:41.374Z,24.40
2018-07-15T18:26:09.746Z,24.40
2018-07-15T18:28:38.188Z,24.40
2018-07-15T18:31:06.774Z,24.40
2018-07-15T18:33:35.166Z,24.40
2018-07-15T18:36:04.197Z,24.40
2018-07-15T18:38:36.349Z,24.40
2018-07-15T18:41:05.532Z,24.40
2018-07-15T18:43:34.141Z,24.30
2018-07-15T18:46:03.044Z,24.30
2018-07-15T18:48:31.534Z,24.30
2018-07-15T18:51:00.066Z,24.20
2018-07-15T18:53:28.607Z,24.10
2018-07-15T18:55:56.966Z,24.10
2018-07-15T18:58:25.387Z,24.10
2018-07-15T19:00:53.798Z,24.00
2018-07-15T19:03:22.242Z,24.00
2018-07-15T19:05:50.749Z,24.00
2018-07-15T19:08:19.349Z,23.90
2018-07-15T19:10:47.873Z,23.90
2018-07-15T19:13:16.273Z,23.90
2018-07-15T19:15:44.734Z,23.80
2018-07-15T19:18:13.213Z,23.80
2018-07-15T19:20:41.658Z,23.80
2018-07-15T19:23:10.162Z,23.70
2018-07-15T19:25:38.543Z,23.60
2018-07-15T19:28:07.065Z,23.60
2018-07-15T19:30:35.472Z,23.60
2018-07-15T19:33:03.877Z,23.50
2018-07-15T19:35:32.334Z,23.40
2018-07-15T19:38:00.746Z,23.30
2018-07-15T19:40:29.150Z,23.30
2018-07-15T19:42:57.618Z,23.20
2018-07-15T19:45:25.999Z,23.10
2018-07-15T19:47:54.422Z,23.10
2018-07-15T19:50:22.843Z,23.00
2018-07-15T19:52:51.754Z,23.00
2018-07-15T19:55:20.117Z,22.90
2018-07-15T19:57:48.505Z,22.90
2018-07-15T20:00:17.044Z,22.80
2018-07-15T20:02:45.644Z,22.70
2018-07-15T20:05:14.321Z,22.70
2018-07-15T20:07:43.031Z,22.70
2018-07-15T20:10:11.601Z,22.60
2018-07-15T20:12:40.082Z,22.50
2018-07-15T20:15:15.134Z,22.50
2018-07-15T20:17:44.133Z,22.50
2018-07-15T20:20:13.066Z,22.50
2018-07-15T20:22:41.421Z,22.40
2018-07-15T20:25:09.806Z,22.40
2018-07-15T20:27:38.220Z,22.40
2018-07-15T20:30:06.579Z,22.40
2018-07-15T20:32:34.977Z,22.30
2018-07-15T20:35:03.962Z,22.30
2018-07-15T20:40:00.505Z,22.30
2018-07-15T20:42:28.879Z,22.10
2018-07-15T20:44:57.232Z,22.10
2018-07-15T20:47:25.646Z,21.80
2018-07-15T20:49:54.030Z,22.00
2018-07-15T20:52:22.459Z,22.00
2018-07-15T20:54:51.062Z,22.00
2018-07-15T20:57:19.438Z,22.10
2018-07-15T20:59:47.874Z,22.10
2018-07-15T21:02:16.476Z,22.10
2018-07-15T21:04:44.872Z,22.00
2018-07-15T21:07:13.254Z,22.00
2018-07-15T21:09:41.701Z,21.90
2018-07-15T21:12:09.741Z,21.80
2018-07-15T21:14:38.283Z,21.80
2018-07-15T21:17:06.704Z,21.80
2018-07-15T21:19:35.063Z,21.80
2018-07-15T21:22:03.418Z,21.70
2018-07-15T21:24:31.819Z,21.70
2018-07-15T21:27:00.317Z,21.50
2018-07-15T21:29:28.734Z,21.50
2018-07-15T21:31:59.994Z,21.50
2018-07-15T21:34:28.921Z,21.50
2018-07-15T21:36:58.124Z,21.50
2018-07-15T21:39:26.477Z,21.60
2018-07-15T21:41:55.158Z,21.60
2018-07-15T21:44:23.642Z,21.50
2018-07-15T21:46:52.238Z,21.50
2018-07-15T21:49:20.679Z,21.50
2018-07-15T21:51:49.054Z,21.50
2018-07-15T21:54:17.482Z,21.50
2018-07-15T21:56:46.086Z,21.40
2018-07-15T21:59:14.445Z,21.40
2018-07-15T22:01:44.062Z,21.40
2018-07-15T22:04:12.861Z,21.40
2018-07-15T22:06:52.769Z,21.40
2018-07-15T22:09:32.666Z,21.40
2018-07-15T22:12:01.042Z,21.40
2018-07-15T22:14:29.413Z,21.30
2018-07-15T22:16:57.882Z,21.30
2018-07-15T22:19:26.722Z,21.30
2018-07-15T22:21:55.092Z,21.30
2018-07-15T22:24:23.523Z,21.30
2018-07-15T22:26:51.968Z,21.30
2018-07-15T22:29:20.336Z,21.20
2018-07-15T22:31:49.070Z,21.10
2018-07-15T22:34:17.538Z,21.20
2018-07-15T22:36:45.966Z,21.20
2018-07-15T22:39:14.397Z,21.10
2018-07-15T22:41:42.784Z,21.10
2018-07-15T22:44:11.290Z,21.10
2018-07-15T22:46:39.687Z,21.10
2018-07-15T22:49:08.049Z,21.10
2018-07-15T22:51:36.471Z,21.00
2018-07-15T22:54:04.978Z,21.00
2018-07-15T22:56:33.454Z,20.90
2018-07-15T22:59:01.879Z,20.90
2018-07-15T23:01:30.307Z,20.90
2018-07-15T23:03:58.702Z,20.90
2018-07-15T23:06:27.123Z,20.80
2018-07-15T23:08:55.513Z,20.80
2018-07-15T23:11:23.862Z,20.70
2018-07-15T23:13:52.270Z,20.70
2018-07-15T23:16:20.674Z,20.70
2018-07-15T23:18:49.074Z,20.70
2018-07-15T23:21:17.614Z,20.70
2018-07-15T23:23:46.107Z,20.60
2018-07-15T23:26:14.751Z,20.50
2018-07-15T23:28:43.102Z,20.50
2018-07-15T23:31:11.502Z,20.50
2018-07-15T23:33:39.903Z,20.50
2018-07-15T23:36:08.330Z,20.50
2018-07-15T23:38:36.736Z,20.50
2018-07-15T23:41:05.246Z,20.40
2018-07-15T23:43:33.641Z,20.40
2018-07-15T23:46:02.065Z,20.40
2018-07-15T23:48:30.581Z,20.30
2018-07-15T23:50:58.950Z,20.30
2018-07-15T23:53:27.288Z,20.10
2018-07-15T23:58:23.897Z,19.90
